createdAt,value
2023-05-16T00:00:38.057Z,1.38
2023-05-16T00:03:29.669Z,1.55
2023-05-16T00:06:29.530Z,1.60
2023-05-16T00:09:10.368Z,1.55
2023-05-16T00:11:51.184Z,1.75
2023-05-16T00:14:29.864Z,1.50
2023-05-16T00:17:02.206Z,1.60
2023-05-16T00:19:51.494Z,1.50
2023-05-16T00:22:43.559Z,1.23
2023-05-16T00:25:24.413Z,1.45
2023-05-16T00:28:11.733Z,1.13
2023-05-16T00:30:42.173Z,1.85
2023-05-16T00:33:22.895Z,1.80
2023-05-16T00:35:57.945Z,2.10
2023-05-16T00:38:56.644Z,1.70
2023-05-16T00:41:37.520Z,2.03
2023-05-16T00:44:26.419Z,1.60
2023-05-16T00:47:09.486Z,2.17
2023-05-16T00:49:50.902Z,2.30
2023-05-16T00:55:32.904Z,2.08
2023-05-16T00:58:04.497Z,1.90
2023-05-16T01:00:33.188Z,1.90
2023-05-16T01:03:00.652Z,2.00
2023-05-16T01:05:29.425Z,1.60
2023-05-16T01:07:57.103Z,1.50
2023-05-16T01:10:25.709Z,1.40
2023-05-16T01:12:53.002Z,1.50
2023-05-16T01:15:28.823Z,1.40
2023-05-16T01:18:18.379Z,1.65
2023-05-16T01:21:01.276Z,1.92
2023-05-16T01:23:49.728Z,2.80
2023-05-16T01:26:20.126Z,2.03
2023-05-16T01:28:48.125Z,1.85
2023-05-16T01:31:16.571Z,2.05
2023-05-16T01:33:44.919Z,1.95
2023-05-16T01:36:22.776Z,1.85
2023-05-16T01:38:56.112Z,1.88
2023-05-16T01:41:41.433Z,2.00
2023-05-16T01:44:18.072Z,1.80
2023-05-16T01:46:48.481Z,1.63
2023-05-16T01:49:27.092Z,1.83
2023-05-16T01:52:02.187Z,1.90
2023-05-16T01:54:32.393Z,1.90
2023-05-16T01:57:02.228Z,1.75
2023-05-16T01:59:29.579Z,1.63
2023-05-16T02:01:58.278Z,1.73
2023-05-16T02:04:25.541Z,2.15
2023-05-16T02:06:53.122Z,1.88
2023-05-16T02:09:20.330Z,1.77
2023-05-16T02:11:47.531Z,1.80
2023-05-16T02:14:14.889Z,1.73
2023-05-16T02:16:42.153Z,2.50
2023-05-16T02:19:09.510Z,1.80
2023-05-16T02:21:39.164Z,1.80
2023-05-16T02:24:06.546Z,1.80
2023-05-16T02:26:33.681Z,2.00
2023-05-16T02:29:00.928Z,1.90
2023-05-16T02:31:30.469Z,1.90
2023-05-16T02:33:58.768Z,1.92
2023-05-16T02:36:26.171Z,2.30
2023-05-16T02:38:53.313Z,2.33
2023-05-16T02:41:23.192Z,2.03
2023-05-16T02:43:50.432Z,1.90
2023-05-16T02:46:28.178Z,2.03
2023-05-16T02:48:55.440Z,2.10
2023-05-16T02:51:25.819Z,2.30
2023-05-16T02:53:53.586Z,2.30
2023-05-16T02:56:21.930Z,2.22
2023-05-16T02:58:50.259Z,1.95
2023-05-16T03:01:18.010Z,2.10
2023-05-16T03:03:45.411Z,2.10
2023-05-16T03:06:12.935Z,2.08
2023-05-16T03:08:40.052Z,2.35
2023-05-16T03:11:07.239Z,2.00
2023-05-16T03:13:34.568Z,2.05
2023-05-16T03:16:02.446Z,2.22
2023-05-16T03:18:29.735Z,2.30
2023-05-16T03:20:57.589Z,2.30
2023-05-16T03:23:24.764Z,2.50
2023-05-16T03:25:51.930Z,2.17
2023-05-16T03:28:21.398Z,2.00
2023-05-16T03:30:48.593Z,2.25
2023-05-16T03:33:16.267Z,2.22
2023-05-16T03:35:44.371Z,2.13
2023-05-16T03:38:11.793Z,2.50
2023-05-16T03:40:39.595Z,2.30
2023-05-16T03:43:06.741Z,3.38
2023-05-16T03:45:33.952Z,2.40
2023-05-16T03:48:01.622Z,2.00
2023-05-16T03:50:28.901Z,2.20
2023-05-16T03:52:56.105Z,2.50
2023-05-16T03:55:23.217Z,2.17
2023-05-16T03:57:52.631Z,2.20
2023-05-16T04:00:19.812Z,2.05
2023-05-16T04:02:47.737Z,2.15
2023-05-16T04:05:15.101Z,2.10
2023-05-16T04:07:42.351Z,1.98
2023-05-16T04:10:10.413Z,2.53
2023-05-16T04:12:37.849Z,2.13
2023-05-16T04:15:07.381Z,3.05
2023-05-16T04:17:35.072Z,3.92
2023-05-16T04:20:04.436Z,5.22
2023-05-16T04:22:31.746Z,6.07
2023-05-16T04:24:58.958Z,6.28
2023-05-16T04:27:26.966Z,6.63
2023-05-16T04:29:54.062Z,4.20
2023-05-16T04:32:21.421Z,6.10
2023-05-16T04:34:50.242Z,11.50
2023-05-16T04:37:17.363Z,4.60
2023-05-16T04:39:44.575Z,4.40
2023-05-16T04:42:12.149Z,3.42
2023-05-16T04:44:39.188Z,3.05
2023-05-16T04:47:06.839Z,3.50
2023-05-16T04:49:34.130Z,4.75
2023-05-16T04:52:01.952Z,4.68
2023-05-16T04:54:29.084Z,3.58
2023-05-16T04:56:57.466Z,2.65
2023-05-16T04:59:24.925Z,2.95
2023-05-16T05:01:52.109Z,4.75
2023-05-16T05:04:19.400Z,3.75
2023-05-16T05:06:46.832Z,4.10
2023-05-16T05:09:14.290Z,3.92
2023-05-16T05:11:41.511Z,3.17
2023-05-16T05:14:08.974Z,2.95
2023-05-16T05:16:37.574Z,2.50
2023-05-16T05:19:04.785Z,2.40
2023-05-16T05:21:32.852Z,2.55
2023-05-16T05:24:00.052Z,2.70
2023-05-16T05:26:28.861Z,3.03
2023-05-16T05:29:04.683Z,2.88
2023-05-16T05:31:34.900Z,2.75
2023-05-16T05:34:03.670Z,3.35
2023-05-16T05:36:31.608Z,3.88
2023-05-16T05:38:58.840Z,3.35
2023-05-16T05:41:27.063Z,3.78
2023-05-16T05:43:54.277Z,3.58
2023-05-16T05:46:21.548Z,3.47
2023-05-16T05:48:48.773Z,4.43
2023-05-16T05:51:16.082Z,4.20
2023-05-16T05:53:43.224Z,4.43
2023-05-16T05:56:10.438Z,3.90
2023-05-16T05:58:37.880Z,3.28
2023-05-16T06:01:04.958Z,3.40
2023-05-16T06:03:32.292Z,3.70
2023-05-16T06:05:59.698Z,3.65
2023-05-16T06:08:27.056Z,4.05
2023-05-16T06:10:54.607Z,3.97
2023-05-16T06:13:22.093Z,3.70
2023-05-16T06:15:53.277Z,3.53
2023-05-16T06:18:21.543Z,3.25
2023-05-16T06:20:48.975Z,4.05
2023-05-16T06:23:17.273Z,3.85
2023-05-16T06:25:45.265Z,4.15
2023-05-16T06:28:12.638Z,5.43
2023-05-16T06:30:39.992Z,6.40
2023-05-16T06:33:07.159Z,4.30
2023-05-16T06:35:34.208Z,4.50
2023-05-16T06:38:01.410Z,4.60
2023-05-16T06:40:28.480Z,4.15
2023-05-16T06:42:55.721Z,4.28
2023-05-16T06:45:23.169Z,4.20
2023-05-16T06:47:50.445Z,4.28
2023-05-16T06:50:17.648Z,4.88
2023-05-16T06:52:44.768Z,4.97
2023-05-16T06:55:12.562Z,4.60
2023-05-16T06:57:39.886Z,4.10
2023-05-16T07:00:08.456Z,3.80
2023-05-16T07:02:35.908Z,4.13
2023-05-16T07:05:03.282Z,4.25
2023-05-16T07:07:30.604Z,4.70
2023-05-16T07:09:57.765Z,4.43
2023-05-16T07:12:24.942Z,4.50
2023-05-16T07:14:52.476Z,4.68
2023-05-16T07:17:19.563Z,6.18
2023-05-16T07:19:46.868Z,6.00
2023-05-16T07:22:13.996Z,5.80
2023-05-16T07:24:41.522Z,5.22
2023-05-16T07:27:08.690Z,5.18
2023-05-16T07:29:37.527Z,5.55
2023-05-16T07:32:05.037Z,5.35
2023-05-16T07:34:32.405Z,4.90
2023-05-16T07:36:59.652Z,5.18
2023-05-16T07:39:26.768Z,4.93
2023-05-16T07:41:53.856Z,5.00
2023-05-16T07:44:21.110Z,5.10
2023-05-16T07:46:48.251Z,5.00
2023-05-16T07:49:15.522Z,4.57
2023-05-16T07:51:42.847Z,4.80
2023-05-16T07:54:09.959Z,5.22
2023-05-16T07:56:37.269Z,4.70
2023-05-16T07:59:06.001Z,4.63
2023-05-16T08:01:33.474Z,5.28
2023-05-16T08:04:00.743Z,5.18
2023-05-16T08:06:27.962Z,5.72
2023-05-16T08:08:55.547Z,5.40
2023-05-16T08:11:22.976Z,5.40
2023-05-16T08:13:50.472Z,5.10
2023-05-16T08:16:17.752Z,5.50
2023-05-16T08:18:45.235Z,5.13
2023-05-16T08:21:14.180Z,5.68
2023-05-16T08:23:41.343Z,5.72
2023-05-16T08:26:08.522Z,5.30
2023-05-16T08:28:35.677Z,6.20
2023-05-16T08:31:03.990Z,5.50
2023-05-16T08:33:31.337Z,5.30
2023-05-16T08:35:59.424Z,5.57
2023-05-16T08:38:26.808Z,5.85
2023-05-16T08:40:54.473Z,6.20
2023-05-16T08:43:21.925Z,5.68
2023-05-16T08:45:49.572Z,5.07
2023-05-16T08:48:21.271Z,5.50
2023-05-16T08:50:48.883Z,5.72
2023-05-16T08:53:21.860Z,5.38
2023-05-16T08:55:51.661Z,5.82
2023-05-16T08:58:19.934Z,5.68
2023-05-16T09:00:48.167Z,6.03
2023-05-16T09:03:16.152Z,6.00
2023-05-16T09:05:43.448Z,7.57
2023-05-16T09:08:10.630Z,6.80
2023-05-16T09:10:37.830Z,6.78
2023-05-16T09:13:04.996Z,6.03
2023-05-16T09:15:33.572Z,7.38
2023-05-16T09:18:02.742Z,6.20
2023-05-16T09:20:30.029Z,6.45
2023-05-16T09:22:59.381Z,6.72
2023-05-16T09:25:31.448Z,6.68
2023-05-16T09:28:02.487Z,7.47
2023-05-16T09:30:33.815Z,6.47
2023-05-16T09:33:02.031Z,7.80
2023-05-16T09:37:59.745Z,8.40
2023-05-16T09:40:26.927Z,9.65
2023-05-16T09:43:04.852Z,9.13
2023-05-16T09:45:34.343Z,8.45
2023-05-16T09:48:06.761Z,9.80
2023-05-16T09:50:35.869Z,10.73
2023-05-16T09:53:03.902Z,9.30
2023-05-16T09:55:32.124Z,8.73
2023-05-16T09:57:59.650Z,8.25
2023-05-16T10:00:32.596Z,7.40
2023-05-16T10:03:05.405Z,7.75
2023-05-16T10:05:34.975Z,8.32
2023-05-16T10:08:03.745Z,7.72
2023-05-16T10:10:31.588Z,7.90
2023-05-16T10:13:01.693Z,6.53
2023-05-16T10:15:30.254Z,7.13
2023-05-16T10:18:00.717Z,6.80
2023-05-16T10:20:28.407Z,6.68
2023-05-16T10:22:57.018Z,6.25
2023-05-16T10:25:44.911Z,7.28
2023-05-16T10:28:13.409Z,6.75
2023-05-16T10:30:44.387Z,6.53
2023-05-16T10:33:14.707Z,7.35
2023-05-16T10:35:42.651Z,7.43
2023-05-16T10:38:12.508Z,6.85
2023-05-16T10:40:40.935Z,7.25
2023-05-16T10:43:09.458Z,6.60
2023-05-16T10:45:42.664Z,7.28
2023-05-16T10:48:12.886Z,7.07
2023-05-16T10:50:43.927Z,7.13
2023-05-16T10:53:15.144Z,6.50
2023-05-16T10:56:03.139Z,7.00
2023-05-16T10:58:31.564Z,7.22
2023-05-16T11:01:23.371Z,8.13
2023-05-16T11:04:05.571Z,7.13
2023-05-16T11:06:41.475Z,8.57
2023-05-16T11:09:13.360Z,7.15
2023-05-16T11:11:50.050Z,7.13
2023-05-16T11:14:24.609Z,7.50
2023-05-16T11:19:39.854Z,7.32
2023-05-16T11:22:27.359Z,7.65
2023-05-16T11:24:59.300Z,7.43
2023-05-16T11:27:27.931Z,6.38
2023-05-16T11:30:01.825Z,7.78
2023-05-16T11:32:31.606Z,7.35
2023-05-16T11:34:59.495Z,6.78
2023-05-16T11:37:26.865Z,6.63
2023-05-16T11:39:58.920Z,6.70
2023-05-16T11:42:30.156Z,7.00
2023-05-16T11:45:10.012Z,7.20
2023-05-16T11:47:39.013Z,7.43
2023-05-16T11:50:14.432Z,7.38
2023-05-16T11:52:47.644Z,6.50
2023-05-16T11:55:28.146Z,6.88
2023-05-16T11:58:00.688Z,6.85
2023-05-16T12:00:28.290Z,7.00
2023-05-16T12:03:03.219Z,7.57
2023-05-16T12:05:32.197Z,7.57
2023-05-16T12:07:59.950Z,7.40
2023-05-16T12:10:27.336Z,7.47
2023-05-16T12:12:56.386Z,7.40
2023-05-16T12:15:23.692Z,7.68
2023-05-16T12:17:52.127Z,8.80
2023-05-16T12:20:19.375Z,7.82
2023-05-16T12:22:47.196Z,8.30
2023-05-16T12:25:32.227Z,7.70
2023-05-16T12:28:02.065Z,7.88
2023-05-16T12:30:32.279Z,8.70
2023-05-16T12:33:05.830Z,8.30
2023-05-16T12:35:37.578Z,7.70
2023-05-16T12:38:05.863Z,8.50
2023-05-16T12:40:33.392Z,8.32
2023-05-16T12:43:00.613Z,8.07
2023-05-16T12:45:28.399Z,8.00
2023-05-16T12:47:55.633Z,7.38
2023-05-16T12:50:23.213Z,7.45
2023-05-16T12:52:52.059Z,8.43
2023-05-16T12:55:20.628Z,8.43
2023-05-16T12:57:49.046Z,8.63
2023-05-16T13:00:20.449Z,8.80
2023-05-16T13:02:48.896Z,8.43
2023-05-16T13:05:17.573Z,8.68
2023-05-16T13:07:44.737Z,7.93
2023-05-16T13:10:12.833Z,8.43
2023-05-16T13:12:41.050Z,8.82
2023-05-16T13:15:10.589Z,8.20
2023-05-16T13:17:39.836Z,9.02
2023-05-16T13:20:10.541Z,8.40
2023-05-16T13:22:37.955Z,8.32
2023-05-16T13:25:06.374Z,8.93
2023-05-16T13:27:34.247Z,8.45
2023-05-16T13:30:01.841Z,7.95
2023-05-16T13:32:29.030Z,8.68
2023-05-16T13:34:56.773Z,7.82
2023-05-16T13:37:24.668Z,8.45
2023-05-16T13:39:52.783Z,8.18
2023-05-16T13:42:19.872Z,8.68
2023-05-16T13:44:47.307Z,8.93
2023-05-16T13:47:14.916Z,7.60
2023-05-16T13:49:42.120Z,8.15
2023-05-16T13:52:09.374Z,8.13
2023-05-16T13:54:36.599Z,8.38
2023-05-16T13:57:03.928Z,8.10
2023-05-16T13:59:52.559Z,8.20
2023-05-16T14:02:18.331Z,8.02
2023-05-16T14:04:46.770Z,7.45
2023-05-16T14:07:15.329Z,8.02
2023-05-16T14:09:42.521Z,7.80
2023-05-16T14:12:09.871Z,7.72
2023-05-16T14:14:37.864Z,8.05
2023-05-16T14:17:05.335Z,8.77
2023-05-16T14:19:32.680Z,8.75
2023-05-16T14:21:59.949Z,8.27
2023-05-16T14:24:27.217Z,8.77
2023-05-16T14:26:55.379Z,9.40
2023-05-16T14:29:22.833Z,9.50
2023-05-16T14:31:50.142Z,9.50
2023-05-16T14:34:17.183Z,9.30
2023-05-16T14:36:44.360Z,10.50
2023-05-16T14:39:12.313Z,10.18
2023-05-16T14:41:39.569Z,9.57
2023-05-16T14:44:06.664Z,8.23
2023-05-16T14:46:34.027Z,8.40
2023-05-16T14:49:01.446Z,8.82
2023-05-16T14:51:28.636Z,8.43
2023-05-16T14:53:56.099Z,8.20
2023-05-16T14:56:23.595Z,9.45
2023-05-16T14:58:50.952Z,9.15
2023-05-16T15:01:18.319Z,8.75
2023-05-16T15:03:54.453Z,8.98
2023-05-16T15:06:24.237Z,10.32
2023-05-16T15:08:51.618Z,9.27
2023-05-16T15:11:18.997Z,9.35
2023-05-16T15:13:46.568Z,11.70
2023-05-16T15:16:14.338Z,9.02
2023-05-16T15:18:41.908Z,10.63
2023-05-16T15:21:09.815Z,9.30
2023-05-16T15:23:37.894Z,7.90
2023-05-16T15:26:05.565Z,9.15
2023-05-16T15:28:32.970Z,8.45
2023-05-16T15:31:00.304Z,8.48
2023-05-16T15:33:27.855Z,8.20
2023-05-16T15:35:56.382Z,7.30
2023-05-16T15:38:23.709Z,7.03
2023-05-16T15:41:05.116Z,7.32
2023-05-16T15:43:39.604Z,7.05
2023-05-16T15:46:09.900Z,6.32
2023-05-16T15:48:42.870Z,6.70
2023-05-16T15:51:10.461Z,5.75
2023-05-16T15:53:37.725Z,6.40
2023-05-16T15:56:05.348Z,5.63
2023-05-16T15:58:32.684Z,5.28
2023-05-16T16:00:59.900Z,4.90
2023-05-16T16:03:27.634Z,4.97
2023-05-16T16:05:55.196Z,5.13
2023-05-16T16:08:22.426Z,4.75
2023-05-16T16:10:49.770Z,4.65
2023-05-16T16:13:17.060Z,4.88
2023-05-16T16:15:44.503Z,4.90
2023-05-16T16:18:12.637Z,4.97
2023-05-16T16:20:40.021Z,4.72
2023-05-16T16:23:07.433Z,5.25
2023-05-16T16:25:35.125Z,4.90
2023-05-16T16:28:02.646Z,5.03
2023-05-16T16:30:29.992Z,4.90
2023-05-16T16:32:57.421Z,5.20
2023-05-16T16:35:26.348Z,5.25
2023-05-16T16:38:05.615Z,5.10
2023-05-16T16:40:34.587Z,5.10
2023-05-16T16:43:02.049Z,5.38
2023-05-16T16:45:29.959Z,5.63
2023-05-16T16:47:58.154Z,4.85
2023-05-16T16:50:25.425Z,4.05
2023-05-16T16:52:54.034Z,4.63
2023-05-16T16:55:21.403Z,3.92
2023-05-16T16:57:48.988Z,3.58
2023-05-16T17:00:16.490Z,3.72
2023-05-16T17:02:44.023Z,4.13
2023-05-16T17:05:11.276Z,3.80
2023-05-16T17:07:38.599Z,3.67
2023-05-16T17:10:10.216Z,3.63
2023-05-16T17:12:44.658Z,4.03
2023-05-16T17:15:13.029Z,4.00
2023-05-16T17:17:40.655Z,4.28
2023-05-16T17:20:09.432Z,3.95
2023-05-16T17:22:36.941Z,4.95
2023-05-16T17:25:04.780Z,4.22
2023-05-16T17:27:32.206Z,4.10
2023-05-16T17:29:59.452Z,4.22
2023-05-16T17:32:26.828Z,3.90
2023-05-16T17:34:55.225Z,3.80
2023-05-16T17:37:22.688Z,4.03
2023-05-16T17:39:50.475Z,4.38
2023-05-16T17:42:17.698Z,3.90
2023-05-16T17:44:45.805Z,4.35
2023-05-16T17:47:14.029Z,3.53
2023-05-16T17:49:41.692Z,4.20
2023-05-16T17:52:09.224Z,3.63
2023-05-16T17:54:36.656Z,3.50
2023-05-16T17:57:04.628Z,3.70
2023-05-16T17:59:31.972Z,3.50
2023-05-16T18:02:01.793Z,3.58
2023-05-16T18:04:29.026Z,3.47
2023-05-16T18:06:57.017Z,4.10
2023-05-16T18:09:24.587Z,3.50
2023-05-16T18:11:51.695Z,3.53
2023-05-16T18:14:19.873Z,3.95
2023-05-16T18:16:47.220Z,3.95
2023-05-16T18:19:14.722Z,3.65
2023-05-16T18:21:44.657Z,4.50
2023-05-16T18:24:13.581Z,4.03
2023-05-16T18:26:42.108Z,4.07
2023-05-16T18:29:10.895Z,3.63
2023-05-16T18:31:41.242Z,4.63
2023-05-16T18:34:10.707Z,3.45
2023-05-16T18:36:37.879Z,3.70
2023-05-16T18:39:05.903Z,3.60
2023-05-16T18:41:33.083Z,4.65
2023-05-16T18:44:00.700Z,3.65
2023-05-16T18:46:27.984Z,3.50
2023-05-16T18:48:57.962Z,3.75
2023-05-16T18:51:25.970Z,3.70
2023-05-16T18:53:53.353Z,3.30
2023-05-16T18:56:21.909Z,3.33
2023-05-16T18:58:49.589Z,3.60
2023-05-16T19:01:16.899Z,3.53
2023-05-16T19:03:44.345Z,3.03
2023-05-16T19:06:11.632Z,3.03
2023-05-16T19:08:47.634Z,3.05
2023-05-16T19:11:17.730Z,3.08
2023-05-16T19:13:46.301Z,3.03
2023-05-16T19:16:13.654Z,2.72
2023-05-16T19:18:41.643Z,2.75
2023-05-16T19:21:11.093Z,2.80
2023-05-16T19:23:38.412Z,2.63
2023-05-16T19:26:06.409Z,2.60
2023-05-16T19:28:33.832Z,2.13
2023-05-16T19:31:01.539Z,2.47
2023-05-16T19:33:28.953Z,2.10
2023-05-16T19:35:57.773Z,2.53
2023-05-16T19:38:26.002Z,1.88
2023-05-16T19:40:53.427Z,2.10
2023-05-16T19:43:21.546Z,1.90
2023-05-16T19:45:48.837Z,1.95
2023-05-16T19:48:16.502Z,1.60
2023-05-16T19:50:43.911Z,1.88
2023-05-16T19:53:11.666Z,1.80
2023-05-16T19:55:39.224Z,1.67
2023-05-16T19:58:06.551Z,1.60
2023-05-16T20:00:33.846Z,1.80
2023-05-16T20:03:01.269Z,1.23
2023-05-16T20:05:28.661Z,1.50
2023-05-16T20:07:56.320Z,1.58
2023-05-16T20:10:23.817Z,1.15
2023-05-16T20:12:51.802Z,1.23
2023-05-16T20:15:19.206Z,1.23
2023-05-16T20:17:48.800Z,1.20
2023-05-16T20:20:16.615Z,1.20
2023-05-16T20:22:43.850Z,1.35
2023-05-16T20:25:12.244Z,1.20
2023-05-16T20:27:39.495Z,1.23
2023-05-16T20:30:07.853Z,1.13
2023-05-16T20:32:36.085Z,1.20
2023-05-16T20:35:05.187Z,1.10
2023-05-16T20:37:32.538Z,1.02
2023-05-16T20:40:00.136Z,0.98
2023-05-16T20:42:27.653Z,1.20
2023-05-16T20:44:54.810Z,0.80
2023-05-16T20:47:22.524Z,1.20
2023-05-16T20:49:49.855Z,1.05
2023-05-16T20:52:16.948Z,0.88
2023-05-16T20:54:44.201Z,1.10
2023-05-16T20:57:16.552Z,0.70
2023-05-16T20:59:44.048Z,1.00
2023-05-16T21:02:11.715Z,0.80
2023-05-16T21:04:40.674Z,0.50
2023-05-16T21:07:08.663Z,0.80
2023-05-16T21:09:38.035Z,0.60
2023-05-16T21:12:06.024Z,0.60
2023-05-16T21:14:33.153Z,0.80
2023-05-16T21:17:00.233Z,0.55
2023-05-16T21:19:27.549Z,0.80
2023-05-16T21:21:54.806Z,0.70
2023-05-16T21:24:22.128Z,0.60
2023-05-16T21:26:49.207Z,0.40
2023-05-16T21:29:16.704Z,0.80
2023-05-16T21:31:43.775Z,0.93
2023-05-16T21:34:11.916Z,0.90
2023-05-16T21:36:39.171Z,0.75
2023-05-16T21:39:06.782Z,0.80
2023-05-16T21:41:33.863Z,0.80
2023-05-16T21:44:01.095Z,0.77
2023-05-16T21:46:28.334Z,0.60
2023-05-16T21:48:55.581Z,0.60
2023-05-16T21:51:23.139Z,1.02
2023-05-16T21:53:50.556Z,0.85
2023-05-16T21:56:18.077Z,0.85
2023-05-16T21:58:45.457Z,0.60
2023-05-16T22:01:13.021Z,0.75
2023-05-16T22:03:40.622Z,0.70
2023-05-16T22:06:07.935Z,0.63
2023-05-16T22:08:35.225Z,0.50
2023-05-16T22:11:02.706Z,0.60
2023-05-16T22:13:29.889Z,0.50
2023-05-16T22:16:04.685Z,0.65
2023-05-16T22:18:33.474Z,0.50
2023-05-16T22:21:02.002Z,0.63
2023-05-16T22:23:29.290Z,0.60
2023-05-16T22:25:56.664Z,0.77
2023-05-16T22:28:23.815Z,0.75
2023-05-16T22:30:50.973Z,0.70
2023-05-16T22:33:18.235Z,0.77
2023-05-16T22:35:45.584Z,0.90
2023-05-16T22:38:12.712Z,0.77
2023-05-16T22:40:41.301Z,0.70
2023-05-16T22:43:08.563Z,0.50
2023-05-16T22:45:35.810Z,0.50
2023-05-16T22:48:03.133Z,0.50
2023-05-16T22:50:30.597Z,0.57
2023-05-16T22:52:57.701Z,0.50
2023-05-16T22:55:25.129Z,0.40
2023-05-16T22:57:54.734Z,0.50
2023-05-16T23:00:23.621Z,0.75
2023-05-16T23:02:51.171Z,0.40
2023-05-16T23:05:18.837Z,0.50
2023-05-16T23:07:46.031Z,0.65
2023-05-16T23:10:13.139Z,0.35
2023-05-16T23:12:40.282Z,0.40
2023-05-16T23:15:10.141Z,0.50
2023-05-16T23:17:38.612Z,0.55
2023-05-16T23:20:07.399Z,0.30
2023-05-16T23:22:34.611Z,0.20
2023-05-16T23:25:02.173Z,0.30
2023-05-16T23:27:29.321Z,0.30
2023-05-16T23:29:56.535Z,0.40
2023-05-16T23:32:23.874Z,0.30
2023-05-16T23:34:51.267Z,0.20
2023-05-16T23:37:18.483Z,0.35
2023-05-16T23:39:45.798Z,0.30
2023-05-16T23:42:13.501Z,0.30
2023-05-16T23:44:42.463Z,0.30
2023-05-16T23:47:09.583Z,0.30
2023-05-16T23:49:36.856Z,0.35
2023-05-16T23:52:06.054Z,0.30
2023-05-16T23:54:34.153Z,0.50
2023-05-16T23:57:01.590Z,0.20
2023-05-16T23:59:28.878Z,0.30
